createdAt,value
2019-05-26T00:00:12.253Z,4.83
2019-05-26T00:05:15.815Z,4.67
2019-05-26T00:10:20.165Z,4.27
2019-05-26T00:15:23.572Z,4.17
2019-05-26T00:20:26.996Z,4.97
2019-05-26T00:25:30.788Z,4.67
2019-05-26T00:30:34.227Z,4.53
2019-05-26T00:35:37.711Z,7.30
2019-05-26T00:40:41.149Z,5.87
2019-05-26T00:45:44.929Z,4.93
2019-05-26T00:50:48.375Z,5.40
2019-05-26T00:55:51.870Z,4.87
2019-05-26T01:00:55.318Z,5.20
2019-05-26T01:05:59.157Z,5.07
2019-05-26T01:11:02.638Z,5.27
2019-05-26T01:16:06.063Z,5.73
2019-05-26T01:21:09.484Z,5.90
2019-05-26T01:26:12.899Z,4.33
2019-05-26T01:31:16.394Z,4.97
2019-05-26T01:36:20.163Z,5.53
2019-05-26T01:41:23.611Z,4.90
2019-05-26T01:46:27.025Z,5.47
2019-05-26T01:51:30.442Z,5.60
2019-05-26T01:56:33.909Z,6.17
2019-05-26T02:01:37.463Z,5.93
2019-05-26T02:06:40.865Z,5.97
2019-05-26T02:11:44.285Z,6.17
2019-05-26T02:16:47.878Z,7.23
2019-05-26T02:21:51.315Z,5.50
2019-05-26T02:26:54.736Z,6.67
2019-05-26T02:31:58.178Z,6.20
2019-05-26T02:37:01.604Z,6.23
2019-05-26T02:42:05.483Z,5.90
2019-05-26T02:47:08.970Z,5.20
2019-05-26T02:52:12.434Z,4.67
2019-05-26T02:57:16.150Z,5.20
2019-05-26T03:02:19.830Z,7.23
2019-05-26T03:07:25.936Z,7.03
2019-05-26T03:12:30.754Z,5.33
2019-05-26T03:17:34.629Z,6.10
2019-05-26T03:22:41.736Z,8.53
2019-05-26T03:27:45.225Z,5.80
2019-05-26T03:32:48.663Z,5.83
2019-05-26T03:37:52.101Z,6.50
2019-05-26T03:42:55.538Z,6.23
2019-05-26T03:47:58.990Z,8.40
2019-05-26T03:53:02.476Z,8.90
2019-05-26T03:58:05.893Z,7.70
2019-05-26T04:03:09.312Z,8.17
2019-05-26T04:08:12.779Z,9.07
2019-05-26T04:13:16.260Z,7.90
2019-05-26T04:18:19.701Z,8.10
2019-05-26T04:23:23.188Z,7.13
2019-05-26T04:28:26.645Z,8.13
2019-05-26T04:33:30.068Z,8.10
2019-05-26T04:38:33.472Z,8.60
2019-05-26T04:43:36.972Z,9.80
2019-05-26T04:48:41.016Z,10.13
2019-05-26T04:53:44.392Z,11.07
2019-05-26T04:58:47.815Z,12.23
2019-05-26T05:03:51.252Z,14.20
2019-05-26T05:08:54.744Z,11.27
2019-05-26T05:13:58.184Z,14.47
2019-05-26T05:19:01.683Z,11.73
2019-05-26T05:24:05.297Z,12.97
2019-05-26T05:29:08.724Z,14.10
2019-05-26T05:34:12.157Z,11.63
2019-05-26T05:39:15.581Z,15.20
2019-05-26T05:44:19.011Z,13.03
2019-05-26T05:49:22.457Z,14.80
2019-05-26T05:54:25.941Z,14.10
2019-05-26T05:59:29.382Z,16.80
2019-05-26T06:04:32.811Z,18.27
2019-05-26T06:09:36.250Z,18.87
2019-05-26T06:14:40.059Z,22.20
2019-05-26T06:19:43.577Z,21.63
2019-05-26T06:24:47.084Z,21.63
2019-05-26T06:29:58.697Z,21.67
2019-05-26T06:34:55.814Z,22.37
2019-05-26T06:39:59.331Z,20.90
2019-05-26T06:45:02.784Z,19.00
2019-05-26T06:50:06.769Z,17.67
2019-05-26T06:55:10.562Z,19.03
2019-05-26T07:00:15.379Z,19.60
2019-05-26T07:05:18.905Z,19.43
2019-05-26T07:10:22.411Z,15.97
2019-05-26T07:15:25.977Z,16.93
2019-05-26T07:20:29.477Z,18.03
2019-05-26T07:25:33.570Z,16.27
2019-05-26T07:30:37.145Z,18.10
2019-05-26T07:35:40.656Z,18.07
2019-05-26T07:40:43.086Z,18.13
2019-05-26T07:45:46.495Z,15.27
2019-05-26T07:50:50.001Z,17.57
2019-05-26T07:55:53.502Z,17.67
2019-05-26T08:00:56.973Z,18.47
2019-05-26T08:06:00.431Z,19.77
2019-05-26T08:11:03.864Z,15.87
2019-05-26T08:16:07.471Z,16.10
2019-05-26T08:21:10.925Z,15.60
2019-05-26T08:26:15.161Z,18.10
2019-05-26T08:31:18.994Z,16.77
2019-05-26T08:36:22.485Z,14.07
2019-05-26T08:41:25.947Z,14.43
2019-05-26T08:46:29.384Z,14.23
2019-05-26T08:51:32.819Z,13.10
2019-05-26T08:56:36.269Z,14.37
2019-05-26T09:01:39.779Z,12.77
2019-05-26T09:06:43.194Z,13.77
2019-05-26T09:11:46.651Z,13.33
2019-05-26T09:16:50.085Z,12.60
2019-05-26T09:21:53.522Z,10.83
2019-05-26T09:26:56.960Z,12.40
2019-05-26T09:32:00.402Z,10.80
2019-05-26T09:37:03.833Z,13.53
2019-05-26T09:42:07.263Z,12.20
2019-05-26T09:47:10.689Z,10.37
2019-05-26T09:52:14.188Z,11.47
2019-05-26T09:57:17.684Z,10.80
2019-05-26T10:02:21.110Z,8.20
2019-05-26T10:07:24.526Z,10.20
2019-05-26T10:12:27.967Z,9.20
2019-05-26T10:17:31.406Z,9.73
2019-05-26T10:22:34.903Z,9.30
2019-05-26T10:27:42.167Z,8.17
2019-05-26T10:32:45.769Z,8.37
2019-05-26T10:37:49.185Z,9.40
2019-05-26T10:42:52.608Z,11.03
2019-05-26T10:47:56.064Z,6.87
2019-05-26T10:52:59.498Z,7.03
2019-05-26T10:58:03.024Z,5.47
2019-05-26T11:03:06.474Z,5.47
2019-05-26T11:08:09.900Z,4.43
2019-05-26T11:13:13.333Z,5.00
2019-05-26T11:18:16.728Z,3.87
2019-05-26T11:23:20.169Z,3.53
2019-05-26T11:28:23.597Z,3.17
2019-05-26T11:33:27.047Z,3.53
2019-05-26T11:38:33.463Z,2.90
2019-05-26T11:43:35.621Z,3.03
2019-05-26T11:48:39.542Z,2.53
2019-05-26T11:53:43.139Z,3.60
2019-05-26T11:58:46.591Z,3.33
2019-05-26T12:03:50.025Z,3.67
2019-05-26T12:08:53.500Z,3.37
2019-05-26T12:13:56.942Z,3.47
2019-05-26T12:19:00.369Z,2.83
2019-05-26T12:24:03.922Z,2.33
2019-05-26T12:29:07.307Z,3.13
2019-05-26T12:34:10.727Z,3.57
2019-05-26T12:39:14.150Z,4.77
2019-05-26T12:44:17.598Z,3.27
2019-05-26T12:49:21.031Z,3.03
2019-05-26T12:54:24.455Z,3.53
2019-05-26T12:59:27.916Z,3.70
2019-05-26T13:04:31.352Z,3.30
2019-05-26T13:09:34.805Z,3.70
2019-05-26T13:14:38.244Z,3.53
2019-05-26T13:19:41.674Z,3.20
2019-05-26T13:24:45.081Z,6.83
2019-05-26T13:29:48.933Z,2.30
2019-05-26T13:34:52.320Z,2.50
2019-05-26T13:39:55.822Z,2.47
2019-05-26T13:44:59.250Z,2.83
2019-05-26T13:50:02.763Z,2.10
2019-05-26T13:55:08.343Z,2.40
2019-05-26T14:00:15.411Z,4.97
2019-05-26T14:05:19.215Z,2.93
2019-05-26T14:10:31.575Z,2.57
2019-05-26T14:15:38.812Z,2.07
2019-05-26T14:20:41.559Z,2.93
2019-05-26T14:25:44.979Z,2.30
2019-05-26T14:30:48.474Z,3.20
2019-05-26T14:35:51.955Z,3.30
2019-05-26T14:40:55.355Z,3.50
2019-05-26T14:45:58.751Z,4.57
2019-05-26T14:51:02.183Z,4.67
2019-05-26T14:56:05.592Z,4.03
2019-05-26T15:01:09.028Z,3.13
2019-05-26T15:06:12.466Z,3.07
2019-05-26T15:11:15.881Z,4.10
2019-05-26T15:16:19.302Z,3.90
2019-05-26T15:21:22.723Z,3.85
2019-05-26T15:26:26.150Z,3.73
2019-05-26T15:31:29.568Z,3.93
2019-05-26T15:36:32.993Z,4.30
2019-05-26T15:41:37.346Z,3.63
2019-05-26T15:46:40.883Z,3.97
2019-05-26T15:51:44.391Z,4.30
2019-05-26T15:56:47.808Z,3.67
2019-05-26T16:01:51.452Z,3.70
2019-05-26T16:06:54.912Z,4.37
2019-05-26T16:17:19.588Z,3.67
2019-05-26T16:22:23.111Z,3.60
2019-05-26T16:27:26.550Z,3.83
2019-05-26T16:32:29.983Z,3.93
2019-05-26T16:37:33.539Z,5.00
2019-05-26T16:42:36.986Z,3.97
2019-05-26T16:47:40.394Z,4.13
2019-05-26T16:52:43.809Z,4.17
2019-05-26T16:57:47.243Z,3.43
2019-05-26T17:02:50.685Z,4.00
2019-05-26T17:07:54.121Z,3.53
2019-05-26T17:12:57.552Z,3.93
2019-05-26T17:18:00.976Z,7.97
2019-05-26T17:23:04.456Z,4.40
2019-05-26T17:28:07.893Z,4.23
2019-05-26T17:33:12.910Z,3.50
2019-05-26T17:38:16.428Z,4.47
2019-05-26T17:43:19.858Z,3.97
2019-05-26T17:48:23.962Z,7.40
2019-05-26T17:53:27.454Z,4.93
2019-05-26T17:58:30.866Z,5.80
2019-05-26T18:03:34.289Z,4.07
2019-05-26T18:08:37.770Z,3.70
2019-05-26T18:13:41.195Z,4.50
2019-05-26T18:18:44.616Z,4.30
2019-05-26T18:23:48.057Z,4.33
2019-05-26T18:28:51.460Z,4.27
2019-05-26T18:33:54.885Z,4.27
2019-05-26T18:38:58.302Z,4.97
2019-05-26T18:44:01.732Z,4.80
2019-05-26T18:49:05.319Z,3.93
2019-05-26T18:54:08.833Z,4.07
2019-05-26T18:59:12.277Z,4.00
2019-05-26T19:04:16.019Z,3.90
2019-05-26T19:09:19.444Z,3.90
2019-05-26T19:14:22.887Z,4.70
2019-05-26T19:19:26.385Z,3.40
2019-05-26T19:24:29.811Z,8.50
2019-05-26T19:29:33.282Z,4.00
2019-05-26T19:34:36.736Z,4.20
2019-05-26T19:39:40.145Z,4.03
2019-05-26T19:44:43.582Z,4.40
2019-05-26T19:49:47.008Z,4.77
2019-05-26T19:54:50.463Z,5.83
2019-05-26T19:59:54.271Z,4.77
2019-05-26T20:04:57.687Z,3.90
2019-05-26T20:10:01.525Z,3.97
2019-05-26T20:15:07.976Z,4.87
2019-05-26T20:20:12.505Z,7.43
2019-05-26T20:25:17.086Z,5.87
2019-05-26T20:30:22.866Z,5.17
2019-05-26T20:35:26.488Z,4.63
2019-05-26T20:40:29.983Z,4.63
2019-05-26T20:45:33.407Z,4.30
2019-05-26T20:50:36.869Z,6.00
2019-05-26T20:55:40.336Z,4.90
2019-05-26T21:00:43.762Z,4.77
2019-05-26T21:05:47.413Z,4.63
2019-05-26T21:10:50.833Z,4.00
2019-05-26T21:15:54.269Z,3.53
2019-05-26T21:20:57.717Z,4.63
2019-05-26T21:26:01.181Z,4.27
2019-05-26T21:31:04.615Z,5.13
2019-05-26T21:36:08.158Z,4.10
2019-05-26T21:41:11.571Z,5.87
2019-05-26T21:46:15.328Z,4.70
2019-05-26T21:51:18.823Z,5.20
2019-05-26T21:56:22.264Z,4.37
2019-05-26T22:01:25.789Z,5.30
2019-05-26T22:06:29.260Z,4.90
2019-05-26T22:11:32.703Z,5.27
2019-05-26T22:16:36.142Z,4.40
2019-05-26T22:21:39.622Z,5.37
2019-05-26T22:26:43.068Z,5.33
2019-05-26T22:31:46.495Z,5.30
2019-05-26T22:36:49.927Z,5.43
2019-05-26T22:41:53.348Z,5.47
2019-05-26T22:46:56.774Z,4.87
2019-05-26T22:52:00.198Z,5.47
2019-05-26T22:57:03.639Z,4.00
2019-05-26T23:02:07.733Z,5.17
2019-05-26T23:07:11.098Z,5.03
2019-05-26T23:12:14.509Z,4.97
2019-05-26T23:17:17.927Z,5.90
2019-05-26T23:22:21.361Z,4.77
2019-05-26T23:27:24.793Z,4.40
2019-05-26T23:32:28.214Z,4.20
2019-05-26T23:37:31.639Z,4.57
2019-05-26T23:42:35.139Z,4.53
2019-05-26T23:47:38.582Z,4.17
2019-05-26T23:52:42.016Z,4.50
2019-05-26T23:57:45.470Z,4.27
